Time;durP1;ratioP1;P1;durP2;ratioP2;P2;SDS_P1;SDS_P2;PMS_P1;PMS_P2;Temp;Humidity;BMP_temperature;BMP_pressure;BME280_temperature;BME280_humidity;BME280_pressure;Samples;Min_cycle;Max_cycle;Signal;HPM_P1;HPM_P2
2024/04/25 00:00:04;;;;;;;3.65;1.20;;;;;;;;;;2267474;26;20047;-66
2024/04/25 00:01:05;;;;;;;3.80;1.33;;;;;;;;;;2269985;26;20327;-66
2024/04/25 00:02:07;;;;;;;3.38;1.13;;;;;;;;;;2269643;26;20002;-67
2024/04/25 00:03:08;;;;;;;4.90;1.25;;;;;;;;;;2269852;26;20017;-67
2024/04/25 00:04:11;;;;;;;4.75;1.13;;;;;;;;;;2253576;26;20009;-67
2024/04/25 00:05:13;;;;;;;2.60;1.10;;;;;;;;;;2254547;26;20351;-66
2024/04/25 00:06:14;;;;;;;4.05;1.20;;;;;;;;;;2267293;26;20017;-66
2024/04/25 00:07:15;;;;;;;3.70;1.20;;;;;;;;;;2269640;26;20457;-63
2024/04/25 00:08:18;;;;;;;2.92;1.52;;;;;;;;;;2269626;26;19994;-67
2024/04/25 00:09:19;;;;;;;3.33;1.10;;;;;;;;;;2269694;26;20013;-68
2024/04/25 00:10:21;;;;;;;2.78;1.10;;;;;;;;;;2269753;26;20002;-66
2024/04/25 00:11:24;;;;;;;3.17;0.98;;;;;;;;;;2269738;26;20006;-67
2024/04/25 00:12:25;;;;;;;6.43;1.38;;;;;;;;;;2267607;26;20491;-69
2024/04/25 00:13:27;;;;;;;3.95;1.20;;;;;;;;;;2267773;26;20442;-66
2024/04/25 00:14:28;;;;;;;3.22;1.42;;;;;;;;;;2269813;26;19998;-70
2024/04/25 00:15:29;;;;;;;3.63;1.55;;;;;;;;;;2269730;26;20016;-69
2024/04/25 00:16:31;;;;;;;2.58;1.05;;;;;;;;;;2269692;26;20387;-69
2024/04/25 00:17:32;;;;;;;3.28;1.17;;;;;;;;;;2269906;26;20008;-69
2024/04/25 00:18:34;;;;;;;2.08;1.35;;;;;;;;;;2267308;26;20017;-69
2024/04/25 00:19:35;;;;;;;4.22;1.40;;;;;;;;;;2269577;26;19999;-68
2024/04/25 00:20:37;;;;;;;4.00;1.13;;;;;;;;;;2269706;26;20407;-68
2024/04/25 00:21:38;;;;;;;4.05;1.67;;;;;;;;;;2269775;26;20013;-68
2024/04/25 00:22:39;;;;;;;2.47;1.27;;;;;;;;;;2269837;26;20034;-68
2024/04/25 00:23:41;;;;;;;5.35;1.35;;;;;;;;;;2269677;26;20006;-68
2024/04/25 00:24:42;;;;;;;4.20;1.50;;;;;;;;;;2269792;26;19994;-68
2024/04/25 00:25:44;;;;;;;2.20;1.10;;;;;;;;;;2267211;26;20474;-68
2024/04/25 00:26:45;;;;;;;4.20;1.38;;;;;;;;;;2269686;26;20002;-66
2024/04/25 00:27:46;;;;;;;3.72;1.55;;;;;;;;;;2269619;26;20009;-68
2024/04/25 00:28:48;;;;;;;3.40;1.42;;;;;;;;;;2267938;26;20026;-68
2024/04/25 00:29:50;;;;;;;2.88;1.63;;;;;;;;;;2268524;26;20479;-69
2024/04/25 00:30:51;;;;;;;4.05;1.80;;;;;;;;;;2269630;26;20009;-66
2024/04/25 00:31:52;;;;;;;2.53;1.50;;;;;;;;;;2269730;26;20070;-68
2024/04/25 00:32:55;;;;;;;6.22;1.48;;;;;;;;;;2267466;26;19998;-68
2024/04/25 00:33:58;;;;;;;6.85;1.38;;;;;;;;;;2269701;26;20013;-68
2024/04/25 00:35:01;;;;;;;7.38;2.13;;;;;;;;;;2269384;26;20047;-68
2024/04/25 00:36:02;;;;;;;5.32;1.88;;;;;;;;;;2269679;26;19998;-69
2024/04/25 00:37:04;;;;;;;4.03;1.48;;;;;;;;;;2267231;26;20017;-67
2024/04/25 00:38:05;;;;;;;3.55;1.75;;;;;;;;;;2269663;26;20030;-65
2024/04/25 00:39:06;;;;;;;4.60;2.00;;;;;;;;;;2269151;26;19990;-68
2024/04/25 00:40:09;;;;;;;3.90;1.63;;;;;;;;;;2269609;26;20067;-66
2024/04/25 00:41:11;;;;;;;6.15;1.70;;;;;;;;;;2269563;26;20062;-66
2024/04/25 00:42:18;;;;;;;4.60;1.77;;;;;;;;;;2269447;26;19998;-68
2024/04/25 00:43:32;;;;;;;3.28;1.52;;;;;;;;;;2268626;26;20002;-68
2024/04/25 00:44:34;;;;;;;4.35;1.45;;;;;;;;;;2267085;26;20018;-67
2024/04/25 00:45:35;;;;;;;6.30;1.60;;;;;;;;;;2269397;26;20010;-67
2024/04/25 00:46:37;;;;;;;5.35;1.92;;;;;;;;;;2270233;26;20443;-67
2024/04/25 00:47:39;;;;;;;8.15;1.70;;;;;;;;;;2270078;26;20342;-68
2024/04/25 00:48:41;;;;;;;5.15;1.60;;;;;;;;;;2271051;26;20002;-68
2024/04/25 00:49:42;;;;;;;4.60;1.90;;;;;;;;;;2265474;26;20016;-65
2024/04/25 00:50:44;;;;;;;3.35;1.27;;;;;;;;;;2271317;26;20038;-66
2024/04/25 00:51:46;;;;;;;3.53;1.65;;;;;;;;;;2271451;26;20400;-67
2024/04/25 00:52:47;;;;;;;4.28;1.73;;;;;;;;;;2271189;26;20066;-67
2024/04/25 00:53:49;;;;;;;6.55;2.00;;;;;;;;;;2255074;26;19998;-68
2024/04/25 00:54:51;;;;;;;5.93;1.80;;;;;;;;;;2255253;26;20046;-67
2024/04/25 00:55:53;;;;;;;4.72;1.83;;;;;;;;;;2270530;26;20033;-69
2024/04/25 00:56:55;;;;;;;3.15;1.65;;;;;;;;;;2252812;26;20071;-68
2024/04/25 00:57:59;;;;;;;2.97;1.60;;;;;;;;;;2255507;26;19995;-68
2024/04/25 00:59:01;;;;;;;4.60;1.65;;;;;;;;;;2270971;26;20013;-67
2024/04/25 01:00:02;;;;;;;3.55;1.27;;;;;;;;;;2270985;26;19994;-66
2024/04/25 01:01:07;;;;;;;6.88;1.40;;;;;;;;;;2268944;26;20006;-68
2024/04/25 01:02:09;;;;;;;4.82;1.70;;;;;;;;;;2271058;26;19994;-66
2024/04/25 01:03:13;;;;;;;6.78;2.55;;;;;;;;;;2270921;26;20002;-68
2024/04/25 01:04:20;;;;;;;4.47;1.88;;;;;;;;;;2268961;26;19994;-69
2024/04/25 01:05:24;;;;;;;8.68;1.73;;;;;;;;;;2270934;26;20435;-69
2024/04/25 01:06:27;;;;;;;5.57;1.92;;;;;;;;;;2268945;26;19998;-68
2024/04/25 01:07:30;;;;;;;6.43;1.63;;;;;;;;;;2271049;26;20074;-68
2024/04/25 01:08:32;;;;;;;4.60;1.48;;;;;;;;;;2269162;26;20331;-69
2024/04/25 01:09:33;;;;;;;7.68;1.92;;;;;;;;;;2268396;26;20002;-68
2024/04/25 01:10:36;;;;;;;4.68;1.80;;;;;;;;;;2269649;26;20002;-66
2024/04/25 01:11:37;;;;;;;8.02;1.88;;;;;;;;;;2267315;26;19994;-67
2024/04/25 01:12:39;;;;;;;5.13;1.50;;;;;;;;;;2269542;26;20009;-64
2024/04/25 01:13:40;;;;;;;4.68;1.40;;;;;;;;;;2270878;26;19998;-65
2024/04/25 01:14:41;;;;;;;3.45;1.20;;;;;;;;;;2270554;26;20018;-64
2024/04/25 01:15:43;;;;;;;7.13;1.50;;;;;;;;;;2270697;26;20009;-65
2024/04/25 01:16:45;;;;;;;5.88;1.63;;;;;;;;;;2268679;26;20462;-65
2024/04/25 01:17:46;;;;;;;5.88;1.38;;;;;;;;;;2270550;26;20010;-63
2024/04/25 01:18:47;;;;;;;5.93;1.35;;;;;;;;;;2270669;26;19998;-63
2024/04/25 01:19:49;;;;;;;5.35;1.40;;;;;;;;;;2270572;26;20360;-62
2024/04/25 01:20:50;;;;;;;5.13;1.42;;;;;;;;;;2270624;26;19994;-65
2024/04/25 01:21:55;;;;;;;7.18;1.85;;;;;;;;;;2270590;26;20013;-68
2024/04/25 01:22:57;;;;;;;6.13;1.42;;;;;;;;;;2270243;26;20435;-65
2024/04/25 01:24:02;;;;;;;3.35;1.35;;;;;;;;;;2270528;26;19998;-64
2024/04/25 01:25:04;;;;;;;2.45;1.30;;;;;;;;;;2270802;26;20039;-65
2024/04/25 01:26:07;;;;;;;2.58;1.23;;;;;;;;;;2268914;26;20010;-63
2024/04/25 01:27:09;;;;;;;3.83;1.30;;;;;;;;;;2269428;26;19995;-62
2024/04/25 01:28:10;;;;;;;3.53;1.20;;;;;;;;;;2270698;26;20439;-65
2024/04/25 01:29:14;;;;;;;4.75;1.48;;;;;;;;;;2270786;26;20435;-65
2024/04/25 01:30:16;;;;;;;2.70;1.00;;;;;;;;;;2270648;26;19994;-64
2024/04/25 01:31:18;;;;;;;6.07;1.60;;;;;;;;;;2266200;26;20026;-66
2024/04/25 01:32:21;;;;;;;3.15;1.10;;;;;;;;;;2257893;26;20071;-65
2024/04/25 01:33:22;;;;;;;4.18;1.45;;;;;;;;;;2256003;26;20060;-66
2024/04/25 01:34:24;;;;;;;4.70;1.15;;;;;;;;;;2271262;26;20339;-67
2024/04/25 01:35:29;;;;;;;3.70;1.30;;;;;;;;;;2269087;26;20002;-65
2024/04/25 01:36:30;;;;;;;5.07;1.08;;;;;;;;;;2271308;26;20006;-66
2024/04/25 01:37:34;;;;;;;2.03;1.00;;;;;;;;;;2271552;26;20005;-66
2024/04/25 01:38:35;;;;;;;2.65;1.05;;;;;;;;;;2268596;26;20022;-65
2024/04/25 01:39:37;;;;;;;4.78;1.10;;;;;;;;;;2270554;26;19995;-67
2024/04/25 01:40:38;;;;;;;7.53;1.40;;;;;;;;;;2271004;26;20002;-65
2024/04/25 01:41:40;;;;;;;3.50;1.38;;;;;;;;;;2264516;26;20009;-65
2024/04/25 01:42:41;;;;;;;3.63;1.05;;;;;;;;;;2269323;26;20005;-64
2024/04/25 01:43:43;;;;;;;3.63;1.13;;;;;;;;;;2262946;26;20006;-63
2024/04/25 01:44:44;;;;;;;3.58;1.30;;;;;;;;;;2265334;26;20010;-64
2024/04/25 01:45:46;;;;;;;5.80;1.40;;;;;;;;;;2270871;26;20002;-64
2024/04/25 01:46:53;;;;;;;3.00;1.23;;;;;;;;;;2270625;26;20002;-64
2024/04/25 01:47:55;;;;;;;5.63;1.25;;;;;;;;;;2268472;26;20446;-63
2024/04/25 01:48:59;;;;;;;3.55;1.00;;;;;;;;;;2270880;26;20002;-62
2024/04/25 01:50:01;;;;;;;5.07;1.05;;;;;;;;;;2270375;26;19994;-66
2024/04/25 01:51:02;;;;;;;4.78;1.05;;;;;;;;;;2268344;26;20006;-64
2024/04/25 01:52:04;;;;;;;3.10;1.20;;;;;;;;;;2269451;26;19998;-64
2024/04/25 01:53:05;;;;;;;4.53;1.33;;;;;;;;;;2271104;26;20344;-63
2024/04/25 01:54:06;;;;;;;4.50;0.95;;;;;;;;;;2271089;26;19998;-66
2024/04/25 01:55:08;;;;;;;2.38;1.10;;;;;;;;;;2270819;26;20059;-67
2024/04/25 01:56:09;;;;;;;2.22;0.80;;;;;;;;;;2270542;26;20010;-65
2024/04/25 01:57:11;;;;;;;3.83;1.20;;;;;;;;;;2270464;26;19995;-67
2024/04/25 01:58:12;;;;;;;2.90;1.08;;;;;;;;;;2269295;26;20444;-62
2024/04/25 01:59:13;;;;;;;2.30;0.88;;;;;;;;;;2254528;26;20003;-67
2024/04/25 02:00:15;;;;;;;2.42;0.80;;;;;;;;;;2252590;26;19998;-66
2024/04/25 02:01:16;;;;;;;1.70;0.93;;;;;;;;;;2270780;26;19998;-64
2024/04/25 02:02:17;;;;;;;3.53;0.93;;;;;;;;;;2270905;26;20322;-63
2024/04/25 02:03:20;;;;;;;2.58;1.10;;;;;;;;;;2270543;26;19998;-64
2024/04/25 02:04:21;;;;;;;2.20;0.90;;;;;;;;;;2270444;26;19998;-66
2024/04/25 02:05:23;;;;;;;3.80;1.10;;;;;;;;;;2270185;26;20415;-64
2024/04/25 02:06:25;;;;;;;2.78;0.80;;;;;;;;;;2268582;26;20438;-64
2024/04/25 02:07:28;;;;;;;2.55;0.88;;;;;;;;;;2270554;26;20029;-62
2024/04/25 02:08:29;;;;;;;2.30;0.95;;;;;;;;;;2270541;26;19994;-63
2024/04/25 02:09:31;;;;;;;1.80;0.75;;;;;;;;;;2270600;26;20002;-65
2024/04/25 02:10:33;;;;;;;5.03;1.13;;;;;;;;;;2270696;26;20008;-65
2024/04/25 02:11:34;;;;;;;2.17;0.77;;;;;;;;;;2268226;26;20146;-65
2024/04/25 02:12:36;;;;;;;3.40;0.82;;;;;;;;;;2270584;26;20022;-64
2024/04/25 02:13:38;;;;;;;4.68;1.02;;;;;;;;;;2270540;26;20004;-64
2024/04/25 02:14:39;;;;;;;5.20;0.90;;;;;;;;;;2270482;26;19998;-65
2024/04/25 02:15:40;;;;;;;2.55;0.82;;;;;;;;;;2270454;26;20075;-63
2024/04/25 02:16:42;;;;;;;2.97;0.90;;;;;;;;;;2270568;26;20006;-65
2024/04/25 02:17:43;;;;;;;3.38;0.90;;;;;;;;;;2270261;26;20072;-65
2024/04/25 02:18:45;;;;;;;2.90;0.80;;;;;;;;;;2268392;26;20035;-66
2024/04/25 02:19:46;;;;;;;4.18;1.10;;;;;;;;;;2270326;26;20006;-66
2024/04/25 02:26:09;;;;;;;1.42;0.80;;;;;;;;;;2269716;26;19994;-65
2024/04/25 02:27:10;;;;;;;3.78;1.05;;;;;;;;;;2270046;26;20312;-63
2024/04/25 02:28:12;;;;;;;4.07;0.82;;;;;;;;;;2270543;26;20092;-63
2024/04/25 02:29:14;;;;;;;2.83;1.10;;;;;;;;;;2270405;26;20080;-69
2024/04/25 02:30:16;;;;;;;3.75;1.00;;;;;;;;;;2268419;26;20435;-64
2024/04/25 02:31:20;;;;;;;0.95;0.70;;;;;;;;;;2270377;26;20005;-65
2024/04/25 02:32:22;;;;;;;2.90;1.10;;;;;;;;;;2270430;26;20002;-67
2024/04/25 02:33:25;;;;;;;1.75;0.73;;;;;;;;;;2266747;26;20057;-65
2024/04/25 02:34:26;;;;;;;3.55;1.10;;;;;;;;;;2269439;26;19998;-63
2024/04/25 02:35:28;;;;;;;2.35;0.65;;;;;;;;;;2253524;26;20451;-64
2024/04/25 02:36:29;;;;;;;2.75;1.13;;;;;;;;;;2252384;26;20502;-65
2024/04/25 02:37:30;;;;;;;2.13;0.75;;;;;;;;;;2254353;26;20006;-65
2024/04/25 02:38:33;;;;;;;3.78;0.95;;;;;;;;;;2254444;26;19998;-66
2024/04/25 02:39:35;;;;;;;4.40;0.90;;;;;;;;;;2267802;26;19994;-65
2024/04/25 02:40:36;;;;;;;3.08;0.93;;;;;;;;;;2270484;26;20002;-64
2024/04/25 02:41:37;;;;;;;2.25;0.70;;;;;;;;;;2270344;26;19998;-63
2024/04/25 02:42:39;;;;;;;3.10;0.80;;;;;;;;;;2270449;26;20443;-65
2024/04/25 02:43:40;;;;;;;2.83;0.70;;;;;;;;;;2270344;26;19998;-66
2024/04/25 02:44:42;;;;;;;2.95;0.80;;;;;;;;;;2254411;26;19999;-64
2024/04/25 02:45:45;;;;;;;2.53;1.00;;;;;;;;;;2252733;26;20019;-64
2024/04/25 02:46:46;;;;;;;1.92;0.80;;;;;;;;;;2270228;26;20017;-64
2024/04/25 02:47:47;;;;;;;5.20;0.98;;;;;;;;;;2270260;26;19998;-67
2024/04/25 02:48:49;;;;;;;2.45;1.00;;;;;;;;;;2270397;26;20327;-66
2024/04/25 02:49:50;;;;;;;3.30;0.98;;;;;;;;;;2270079;26;20006;-65
2024/04/25 02:50:51;;;;;;;1.35;0.70;;;;;;;;;;2254181;26;20003;-64
2024/04/25 02:51:53;;;;;;;2.65;0.93;;;;;;;;;;2254339;26;19994;-63
2024/04/25 02:52:54;;;;;;;6.95;0.80;;;;;;;;;;2267929;26;20015;-63
2024/04/25 02:53:56;;;;;;;2.42;0.68;;;;;;;;;;2270344;26;19998;-62
2024/04/25 02:54:58;;;;;;;1.17;0.52;;;;;;;;;;2270248;26;20009;-62
2024/04/25 02:56:00;;;;;;;3.15;0.95;;;;;;;;;;2270232;26;20009;-62
2024/04/25 02:57:01;;;;;;;1.73;0.88;;;;;;;;;;2270278;26;20560;-66
2024/04/25 02:58:03;;;;;;;1.50;0.70;;;;;;;;;;2270312;26;20487;-66
2024/04/25 02:59:04;;;;;;;2.10;0.80;;;;;;;;;;2267824;26;20002;-64
2024/04/25 03:00:07;;;;;;;1.85;0.73;;;;;;;;;;2270476;26;20308;-64
2024/04/25 03:01:09;;;;;;;1.92;0.63;;;;;;;;;;2269993;26;20001;-65
2024/04/25 03:02:10;;;;;;;4.30;1.02;;;;;;;;;;2270208;26;20002;-63
2024/04/25 03:03:11;;;;;;;6.18;0.82;;;;;;;;;;2270202;26;19994;-66
2024/04/25 03:04:13;;;;;;;3.05;0.68;;;;;;;;;;2270167;26;20350;-66
2024/04/25 03:05:14;;;;;;;2.83;0.90;;;;;;;;;;2267708;26;20014;-66
2024/04/25 03:06:15;;;;;;;2.80;0.90;;;;;;;;;;2270177;26;19998;-65
2024/04/25 03:07:17;;;;;;;3.03;0.77;;;;;;;;;;2270328;26;20009;-64
2024/04/25 03:08:18;;;;;;;1.52;0.70;;;;;;;;;;2254054;26;20075;-66
2024/04/25 03:09:19;;;;;;;1.60;0.65;;;;;;;;;;2254000;26;20074;-64
2024/04/25 03:10:21;;;;;;;2.28;0.88;;;;;;;;;;2270010;26;20327;-64
2024/04/25 03:11:22;;;;;;;2.53;0.90;;;;;;;;;;2254295;26;20034;-63
2024/04/25 03:12:24;;;;;;;1.23;0.80;;;;;;;;;;2251878;26;20479;-66
2024/04/25 03:13:25;;;;;;;2.45;1.00;;;;;;;;;;2270018;26;20038;-65
2024/04/25 03:14:26;;;;;;;1.83;0.80;;;;;;;;;;2270101;26;19998;-66
2024/04/25 03:15:28;;;;;;;2.47;1.20;;;;;;;;;;2270168;26;20368;-66
2024/04/25 03:16:29;;;;;;;1.90;1.00;;;;;;;;;;2270022;26;20002;-63
2024/04/25 03:17:31;;;;;;;1.70;0.75;;;;;;;;;;2270168;26;20013;-63
2024/04/25 03:18:32;;;;;;;2.78;0.80;;;;;;;;;;2270177;26;20009;-67
2024/04/25 03:19:33;;;;;;;3.10;0.68;;;;;;;;;;2251925;26;20010;-63
2024/04/25 03:20:38;;;;;;;3.65;1.02;;;;;;;;;;2252247;26;20010;-64
2024/04/25 03:21:40;;;;;;;2.33;0.90;;;;;;;;;;2270042;26;20006;-67
2024/04/25 03:22:41;;;;;;;2.50;0.60;;;;;;;;;;2270126;26;20002;-65
2024/04/25 03:23:43;;;;;;;1.75;0.70;;;;;;;;;;2270014;26;19998;-67
2024/04/25 03:24:44;;;;;;;1.65;0.82;;;;;;;;;;2266004;26;20006;-68
2024/04/25 03:25:45;;;;;;;2.55;0.93;;;;;;;;;;2269793;26;19998;-67
2024/04/25 03:26:47;;;;;;;1.33;0.60;;;;;;;;;;2269951;26;20070;-67
2024/04/25 03:27:49;;;;;;;3.75;1.02;;;;;;;;;;2270112;26;20076;-67
2024/04/25 03:28:51;;;;;;;3.03;0.60;;;;;;;;;;2270090;26;19994;-68
2024/04/25 03:29:54;;;;;;;2.10;0.50;;;;;;;;;;2270006;26;20026;-68
2024/04/25 03:30:55;;;;;;;3.38;1.05;;;;;;;;;;2267959;26;19998;-67
2024/04/25 03:31:57;;;;;;;5.20;0.80;;;;;;;;;;2269923;26;19994;-67
2024/04/25 03:32:58;;;;;;;2.42;0.75;;;;;;;;;;2252950;26;20035;-67
2024/04/25 03:33:59;;;;;;;3.28;0.95;;;;;;;;;;2254067;26;20010;-65
2024/04/25 03:35:01;;;;;;;2.47;0.77;;;;;;;;;;2270058;26;20039;-65
2024/04/25 03:36:02;;;;;;;3.53;0.63;;;;;;;;;;2269775;26;20009;-66
2024/04/25 03:37:03;;;;;;;2.47;0.80;;;;;;;;;;2270021;26;20670;-66
2024/04/25 03:38:05;;;;;;;2.10;0.80;;;;;;;;;;2269776;26;19998;-69
2024/04/25 03:39:06;;;;;;;2.72;0.70;;;;;;;;;;2270050;26;20082;-66
2024/04/25 03:40:08;;;;;;;2.00;0.55;;;;;;;;;;2254156;26;19995;-66
2024/04/25 03:41:18;;;;;;;0.82;0.55;;;;;;;;;;2254471;26;20089;-68
2024/04/25 03:42:21;;;;;;;1.60;0.70;;;;;;;;;;2269985;26;20454;-66
2024/04/25 03:43:22;;;;;;;1.95;0.77;;;;;;;;;;2270132;26;19998;-66
2024/04/25 03:44:24;;;;;;;2.85;0.75;;;;;;;;;;2267476;26;20002;-62
2024/04/25 03:45:25;;;;;;;1.45;0.68;;;;;;;;;;2269881;26;20009;-65
2024/04/25 03:46:27;;;;;;;1.98;0.70;;;;;;;;;;2269776;26;20001;-65
2024/04/25 03:47:29;;;;;;;5.53;0.90;;;;;;;;;;2269976;26;20013;-66
2024/04/25 03:48:30;;;;;;;1.52;0.90;;;;;;;;;;2269637;26;19994;-66
2024/04/25 03:49:32;;;;;;;2.63;0.80;;;;;;;;;;2269719;26;20042;-67
2024/04/25 03:50:33;;;;;;;5.65;1.05;;;;;;;;;;2269578;26;20519;-67
2024/04/25 03:51:35;;;;;;;2.13;0.88;;;;;;;;;;2267700;26;20040;-65
2024/04/25 03:52:36;;;;;;;2.47;0.57;;;;;;;;;;2269672;26;20013;-66
2024/04/25 03:53:38;;;;;;;1.70;0.70;;;;;;;;;;2269758;26;20326;-66
2024/04/25 03:54:39;;;;;;;2.83;0.70;;;;;;;;;;2269858;26;20002;-68
2024/04/25 03:55:41;;;;;;;3.28;0.55;;;;;;;;;;2269597;26;20337;-66
2024/04/25 03:56:43;;;;;;;1.90;0.73;;;;;;;;;;2269716;26;19998;-64
2024/04/25 03:57:44;;;;;;;1.20;0.70;;;;;;;;;;2267290;26;20498;-68
2024/04/25 03:58:45;;;;;;;1.20;0.80;;;;;;;;;;2269717;26;20038;-66
2024/04/25 03:59:47;;;;;;;2.72;0.75;;;;;;;;;;2269831;26;20365;-68
2024/04/25 04:00:48;;;;;;;2.72;0.70;;;;;;;;;;2269912;26;20013;-68
2024/04/25 04:01:50;;;;;;;3.42;1.15;;;;;;;;;;2269754;26;20423;-68
2024/04/25 04:02:52;;;;;;;4.50;0.80;;;;;;;;;;2269607;26;19998;-65
2024/04/25 04:03:53;;;;;;;4.97;0.73;;;;;;;;;;2267231;26;20006;-67
2024/04/25 04:04:55;;;;;;;2.15;1.00;;;;;;;;;;2269678;26;20048;-68
2024/04/25 04:05:57;;;;;;;1.88;0.50;;;;;;;;;;2269472;26;20070;-68
2024/04/25 04:06:59;;;;;;;2.38;0.70;;;;;;;;;;2269467;26;20091;-67
2024/04/25 04:08:00;;;;;;;1.70;0.52;;;;;;;;;;2269417;26;19998;-66
2024/04/25 04:09:02;;;;;;;2.50;0.80;;;;;;;;;;2269767;26;20153;-67
2024/04/25 04:10:04;;;;;;;1.27;0.57;;;;;;;;;;2253750;26;20371;-67
2024/04/25 04:11:05;;;;;;;3.42;0.98;;;;;;;;;;2253844;26;20010;-65
2024/04/25 04:12:06;;;;;;;3.42;1.05;;;;;;;;;;2269715;26;20320;-66
2024/04/25 04:13:08;;;;;;;0.93;0.65;;;;;;;;;;2269521;26;20328;-66
2024/04/25 04:14:09;;;;;;;2.90;0.93;;;;;;;;;;2269744;26;20008;-65
2024/04/25 04:15:11;;;;;;;2.35;0.88;;;;;;;;;;2269788;26;20038;-65
2024/04/25 04:16:13;;;;;;;3.60;1.00;;;;;;;;;;2269505;26;20005;-68
2024/04/25 04:17:14;;;;;;;1.75;0.90;;;;;;;;;;2250677;26;20007;-67
2024/04/25 04:18:16;;;;;;;1.92;0.98;;;;;;;;;;2253739;26;20043;-66
2024/04/25 04:19:17;;;;;;;3.40;0.75;;;;;;;;;;2269651;26;20070;-68
2024/04/25 04:20:19;;;;;;;1.88;0.88;;;;;;;;;;2269588;26;20078;-67
2024/04/25 04:21:20;;;;;;;4.85;1.13;;;;;;;;;;2269567;26;20014;-65
2024/04/25 04:22:21;;;;;;;3.00;1.10;;;;;;;;;;2269549;26;20034;-66
2024/04/25 04:23:23;;;;;;;3.40;0.80;;;;;;;;;;2255180;26;20029;-65
2024/04/25 04:24:24;;;;;;;1.58;0.70;;;;;;;;;;2252830;26;20011;-65
2024/04/25 04:25:26;;;;;;;2.95;0.70;;;;;;;;;;2271207;26;20078;-67
2024/04/25 04:26:27;;;;;;;4.95;1.13;;;;;;;;;;2271000;26;20447;-65
2024/04/25 04:27:28;;;;;;;1.52;0.70;;;;;;;;;;2271190;26;20013;-67
2024/04/25 04:28:30;;;;;;;2.67;0.77;;;;;;;;;;2271154;26;20331;-66
2024/04/25 04:29:31;;;;;;;1.95;0.70;;;;;;;;;;2270974;26;20043;-65
2024/04/25 04:30:33;;;;;;;3.03;0.90;;;;;;;;;;2270912;26;20009;-64
2024/04/25 04:31:34;;;;;;;4.13;0.90;;;;;;;;;;2268892;26;20006;-65
2024/04/25 04:32:35;;;;;;;4.50;0.70;;;;;;;;;;2269004;26;20453;-62
2024/04/25 04:33:37;;;;;;;2.42;0.80;;;;;;;;;;2271060;26;19994;-64
2024/04/25 04:34:38;;;;;;;1.58;0.85;;;;;;;;;;2271173;26;20002;-65
2024/04/25 04:35:40;;;;;;;3.33;0.60;;;;;;;;;;2270606;26;20430;-65
2024/04/25 04:36:41;;;;;;;4.32;0.88;;;;;;;;;;2271010;26;20002;-67
2024/04/25 04:37:42;;;;;;;3.67;0.73;;;;;;;;;;2270926;26;19994;-65
2024/04/25 04:38:44;;;;;;;1.58;0.52;;;;;;;;;;2268515;26;20438;-65
2024/04/25 04:39:45;;;;;;;5.10;1.30;;;;;;;;;;2270957;26;20009;-69
2024/04/25 04:40:47;;;;;;;2.67;0.88;;;;;;;;;;2271062;26;20002;-64
2024/04/25 04:41:48;;;;;;;2.33;0.82;;;;;;;;;;2270936;26;19998;-67
2024/04/25 04:42:50;;;;;;;2.38;0.93;;;;;;;;;;2271036;26;20062;-65
2024/04/25 04:43:51;;;;;;;1.65;0.90;;;;;;;;;;2271027;26;20010;-65
2024/04/25 04:44:52;;;;;;;1.60;0.73;;;;;;;;;;2271288;26;20006;-65
2024/04/25 04:45:57;;;;;;;3.88;1.15;;;;;;;;;;2268840;26;20009;-67
2024/04/25 04:46:59;;;;;;;5.40;1.02;;;;;;;;;;2270980;26;20005;-66
2024/04/25 04:48:00;;;;;;;4.63;0.90;;;;;;;;;;2271068;26;19997;-67
2024/04/25 04:49:03;;;;;;;5.00;1.20;;;;;;;;;;2271161;26;20330;-66
2024/04/25 04:50:04;;;;;;;2.17;0.90;;;;;;;;;;2268451;26;20018;-64
2024/04/25 04:51:05;;;;;;;4.95;0.85;;;;;;;;;;2270786;26;20330;-63
2024/04/25 04:52:08;;;;;;;3.88;0.93;;;;;;;;;;2270868;26;20047;-65
2024/04/25 04:53:09;;;;;;;2.97;1.00;;;;;;;;;;2253850;26;19998;-67
2024/04/25 04:54:12;;;;;;;4.88;0.80;;;;;;;;;;2255171;26;20496;-68
2024/04/25 04:55:13;;;;;;;1.30;0.70;;;;;;;;;;2271141;26;20459;-66
2024/04/25 04:56:15;;;;;;;1.88;0.73;;;;;;;;;;2268630;26;20009;-66
2024/04/25 04:57:16;;;;;;;2.45;0.90;;;;;;;;;;2271093;26;20009;-67
2024/04/25 04:58:18;;;;;;;1.90;0.80;;;;;;;;;;2270904;26;20002;-67
2024/04/25 04:59:19;;;;;;;2.95;0.93;;;;;;;;;;2270909;26;20036;-68
2024/04/25 05:00:20;;;;;;;3.45;0.85;;;;;;;;;;2270998;26;20014;-67
2024/04/25 05:01:22;;;;;;;6.47;0.77;;;;;;;;;;2271054;26;20447;-70
2024/04/25 05:02:23;;;;;;;3.83;0.98;;;;;;;;;;2270875;26;20450;-68
2024/04/25 05:03:25;;;;;;;2.35;0.80;;;;;;;;;;2268911;26;20002;-70
2024/04/25 05:04:26;;;;;;;1.52;0.75;;;;;;;;;;2267133;26;20070;-67
2024/04/25 05:05:28;;;;;;;1.58;0.65;;;;;;;;;;2263878;26;20078;-68
2024/04/25 05:06:29;;;;;;;2.25;0.70;;;;;;;;;;2268059;26;20459;-67
2024/04/25 05:07:34;;;;;;;6.45;1.00;;;;;;;;;;2268678;26;20454;-67
2024/04/25 05:08:36;;;;;;;5.30;1.05;;;;;;;;;;2266919;26;20018;-69
2024/04/25 05:09:37;;;;;;;4.97;1.17;;;;;;;;;;2267350;26;19998;-66
2024/04/25 05:10:39;;;;;;;3.63;1.10;;;;;;;;;;2269087;26;20344;-69
2024/04/25 05:11:40;;;;;;;6.18;0.95;;;;;;;;;;2268557;26;19994;-70
2024/04/25 05:12:41;;;;;;;3.72;1.20;;;;;;;;;;2268543;26;20011;-69
2024/04/25 05:13:44;;;;;;;2.75;0.93;;;;;;;;;;2267177;26;20016;-71
2024/04/25 05:14:45;;;;;;;3.20;1.00;;;;;;;;;;2268184;26;20010;-71
2024/04/25 05:15:47;;;;;;;3.80;1.38;;;;;;;;;;2267925;26;20063;-65
2024/04/25 05:16:50;;;;;;;6.85;1.25;;;;;;;;;;2268255;26;20094;-69
2024/04/25 05:17:53;;;;;;;3.45;1.17;;;;;;;;;;2268646;26;20507;-67
2024/04/25 05:18:54;;;;;;;2.25;0.90;;;;;;;;;;2266128;26;20009;-70
2024/04/25 05:19:57;;;;;;;4.32;1.15;;;;;;;;;;2252348;26;20375;-71
2024/04/25 05:20:58;;;;;;;4.22;1.00;;;;;;;;;;2253105;26;20050;-65
2024/04/25 05:22:00;;;;;;;3.50;1.30;;;;;;;;;;2268643;26;20328;-68
2024/04/25 05:23:01;;;;;;;2.65;1.33;;;;;;;;;;2267818;26;20017;-68
2024/04/25 05:24:03;;;;;;;4.30;1.40;;;;;;;;;;2268342;26;20260;-68
2024/04/25 05:25:04;;;;;;;4.80;1.30;;;;;;;;;;2267125;26;20023;-70
2024/04/25 05:26:07;;;;;;;2.75;1.23;;;;;;;;;;2267584;26;20009;-71
2024/04/25 05:27:10;;;;;;;6.10;1.10;;;;;;;;;;2268596;26;20037;-69
2024/04/25 05:28:11;;;;;;;5.10;1.40;;;;;;;;;;2267868;26;20063;-70
2024/04/25 05:29:13;;;;;;;4.18;1.10;;;;;;;;;;2268328;26;20003;-67
2024/04/25 05:30:15;;;;;;;4.47;1.25;;;;;;;;;;2268394;26;20009;-69
2024/04/25 05:31:16;;;;;;;3.05;1.15;;;;;;;;;;2267310;26;20074;-69
2024/04/25 05:32:19;;;;;;;3.25;1.48;;;;;;;;;;2268285;26;20005;-70
2024/04/25 05:33:20;;;;;;;5.53;1.58;;;;;;;;;;2268553;26;19998;-70
2024/04/25 05:34:21;;;;;;;3.78;1.30;;;;;;;;;;2268343;26;20006;-71
2024/04/25 05:35:23;;;;;;;3.35;1.60;;;;;;;;;;2266770;26;20215;-69
2024/04/25 05:36:24;;;;;;;5.50;1.90;;;;;;;;;;2249998;26;20007;-72
2024/04/25 05:37:27;;;;;;;2.65;1.60;;;;;;;;;;2253486;26;20456;-73
2024/04/25 05:38:28;;;;;;;2.53;1.60;;;;;;;;;;2267144;26;20014;-76
2024/04/25 05:39:30;;;;;;;4.03;1.98;;;;;;;;;;2268531;26;20026;-75
2024/04/25 05:40:31;;;;;;;3.78;1.55;;;;;;;;;;2268885;26;19999;-74
2024/04/25 05:41:34;;;;;;;3.55;1.20;;;;;;;;;;2251269;26;20120;-68
2024/04/25 05:42:35;;;;;;;8.57;2.25;;;;;;;;;;2235578;26;20015;-66
2024/04/25 05:43:37;;;;;;;6.13;1.40;;;;;;;;;;2253819;26;20010;-71
2024/04/25 05:44:38;;;;;;;3.80;1.60;;;;;;;;;;2268996;26;20016;-69
2024/04/25 05:45:39;;;;;;;1.73;1.13;;;;;;;;;;2253414;26;20013;-67
2024/04/25 05:46:41;;;;;;;2.63;1.42;;;;;;;;;;2256162;26;20446;-67
2024/04/25 05:47:42;;;;;;;7.45;1.58;;;;;;;;;;2273353;26;20046;-65
2024/04/25 05:48:44;;;;;;;3.40;1.17;;;;;;;;;;2251168;26;20014;-68
2024/04/25 05:49:49;;;;;;;7.43;1.40;;;;;;;;;;2253365;26;20015;-67
2024/04/25 05:50:50;;;;;;;9.07;1.40;;;;;;;;;;2268419;26;20040;-66
2024/04/25 05:51:52;;;;;;;5.85;1.40;;;;;;;;;;2267689;26;20013;-67
2024/04/25 05:52:53;;;;;;;5.13;1.23;;;;;;;;;;2267636;26;19998;-70
2024/04/25 05:53:55;;;;;;;7.95;1.65;;;;;;;;;;2252220;26;20029;-74
2024/04/25 05:54:57;;;;;;;5.20;1.60;;;;;;;;;;2251892;26;20006;-74
2024/04/25 05:55:58;;;;;;;6.68;1.30;;;;;;;;;;2264581;26;20002;-70
2024/04/25 05:57:00;;;;;;;3.88;1.45;;;;;;;;;;2269463;26;20009;-71
2024/04/25 05:58:01;;;;;;;3.95;1.55;;;;;;;;;;2265613;26;19995;-72
2024/04/25 05:59:03;;;;;;;3.53;1.80;;;;;;;;;;2251316;26;20010;-75
2024/04/25 06:00:06;;;;;;;6.90;1.50;;;;;;;;;;2254125;26;20014;-75
2024/04/25 06:01:07;;;;;;;9.52;1.77;;;;;;;;;;2268835;26;20022;-74
2024/04/25 06:02:08;;;;;;;7.53;2.22;;;;;;;;;;2269454;26;20656;-72
2024/04/25 06:03:11;;;;;;;4.30;1.98;;;;;;;;;;2267762;26;20010;-71
2024/04/25 06:04:13;;;;;;;6.80;2.40;;;;;;;;;;2271008;26;20012;-73
2024/04/25 06:05:14;;;;;;;6.30;1.73;;;;;;;;;;2269342;26;20119;-72
2024/04/25 06:06:17;;;;;;;3.47;1.52;;;;;;;;;;2267077;26;20013;-73
2024/04/25 06:07:19;;;;;;;5.60;1.90;;;;;;;;;;2266955;26;20005;-68
2024/04/25 06:08:20;;;;;;;5.63;2.20;;;;;;;;;;2267593;26;20006;-70
2024/04/25 06:09:21;;;;;;;6.00;1.77;;;;;;;;;;2267184;26;20330;-71
2024/04/25 06:10:23;;;;;;;5.18;1.67;;;;;;;;;;2251547;26;20003;-72
2024/04/25 06:11:27;;;;;;;5.30;2.10;;;;;;;;;;2253293;26;20006;-65
2024/04/25 06:12:29;;;;;;;6.03;1.80;;;;;;;;;;2268843;26;20008;-66
2024/04/25 06:13:32;;;;;;;8.98;1.90;;;;;;;;;;2252866;26;20010;-70
2024/04/25 06:14:33;;;;;;;9.35;1.85;;;;;;;;;;2254474;26;20007;-74
2024/04/25 06:15:35;;;;;;;5.28;1.40;;;;;;;;;;2266022;26;20086;-70